sensor_id;sensor_type;location;lat;lon;timestamp;pressure;altitude;pressure_sealevel;temperature;humidity
16544;BME280;8384;47.996;7.786;2023-12-04T00:00:46;98838.66;;;-6.10;100.00
16544;BME280;8384;47.996;7.786;2023-12-04T00:03:11;98830.50;;;-6.09;100.00
16544;BME280;8384;47.996;7.786;2023-12-04T00:05:36;98818.94;;;-5.99;100.00
16544;BME280;8384;47.996;7.786;2023-12-04T00:08:02;98813.13;;;-5.95;100.00
16544;BME280;8384;47.996;7.786;2023-12-04T00:10:27;98793.63;;;-6.04;100.00
16544;BME280;8384;47.996;7.786;2023-12-04T00:12:52;98786.34;;;-5.93;100.00
16544;BME280;8384;47.996;7.786;2023-12-04T00:15:19;98754.16;;;-6.08;100.00
16544;BME280;8384;47.996;7.786;2023-12-04T00:17:44;98784.63;;;-5.84;100.00
16544;BME280;8384;47.996;7.786;2023-12-04T00:20:10;98757.00;;;-6.28;100.00
16544;BME280;8384;47.996;7.786;2023-12-04T00:22:36;98765.72;;;-5.99;100.00
16544;BME280;8384;47.996;7.786;2023-12-04T00:25:03;98762.94;;;-5.90;100.00
16544;BME280;8384;47.996;7.786;2023-12-04T00:27:28;98611.31;;;-6.79;100.00
16544;BME280;8384;47.996;7.786;2023-12-04T00:29:54;98770.22;;;-5.74;100.00
16544;BME280;8384;47.996;7.786;2023-12-04T00:32:19;98754.25;;;-5.74;100.00
16544;BME280;8384;47.996;7.786;2023-12-04T00:34:45;98752.72;;;-5.76;100.00
16544;BME280;8384;47.996;7.786;2023-12-04T00:37:10;98750.75;;;-5.92;100.00
16544;BME280;8384;47.996;7.786;2023-12-04T00:39:35;98751.53;;;-6.26;100.00
16544;BME280;8384;47.996;7.786;2023-12-04T00:42:00;98743.53;;;-5.82;100.00
16544;BME280;8384;47.996;7.786;2023-12-04T00:44:26;98686.44;;;-5.88;100.00
16544;BME280;8384;47.996;7.786;2023-12-04T00:46:51;98756.00;;;-5.21;100.00
16544;BME280;8384;47.996;7.786;2023-12-04T00:49:16;98762.06;;;-5.72;100.00
16544;BME280;8384;47.996;7.786;2023-12-04T00:51:42;98754.50;;;-6.11;100.00
16544;BME280;8384;47.996;7.786;2023-12-04T00:54:07;98755.41;;;-6.21;100.00
16544;BME280;8384;47.996;7.786;2023-12-04T00:56:32;98749.78;;;-6.36;100.00
16544;BME280;8384;47.996;7.786;2023-12-04T00:58:57;98744.78;;;-6.39;100.00
16544;BME280;8384;47.996;7.786;2023-12-04T01:01:23;98748.50;;;-6.31;100.00
16544;BME280;8384;47.996;7.786;2023-12-04T01:03:48;98753.25;;;-6.17;100.00
16544;BME280;8384;47.996;7.786;2023-12-04T01:06:21;98753.56;;;-6.02;100.00
16544;BME280;8384;47.996;7.786;2023-12-04T01:08:47;98751.28;;;-5.70;100.00
16544;BME280;8384;47.996;7.786;2023-12-04T01:11:14;98750.78;;;-5.66;100.00
16544;BME280;8384;47.996;7.786;2023-12-04T01:13:40;98760.88;;;-5.78;100.00
16544;BME280;8384;47.996;7.786;2023-12-04T01:16:05;98761.84;;;-5.79;100.00
16544;BME280;8384;47.996;7.786;2023-12-04T01:18:31;98757.25;;;-5.68;100.00
16544;BME280;8384;47.996;7.786;2023-12-04T01:20:56;98756.81;;;-5.64;100.00
16544;BME280;8384;47.996;7.786;2023-12-04T01:23:21;98754.00;;;-5.80;100.00
16544;BME280;8384;47.996;7.786;2023-12-04T01:25:46;98752.94;;;-5.69;100.00
16544;BME280;8384;47.996;7.786;2023-12-04T01:28:12;98770.41;;;-5.67;100.00
16544;BME280;8384;47.996;7.786;2023-12-04T01:30:37;98727.97;;;-5.68;100.00
16544;BME280;8384;47.996;7.786;2023-12-04T01:33:02;98726.50;;;-5.63;100.00
16544;BME280;8384;47.996;7.786;2023-12-04T01:35:27;98721.22;;;-5.54;100.00
16544;BME280;8384;47.996;7.786;2023-12-04T01:37:53;98723.31;;;-5.66;100.00
16544;BME280;8384;47.996;7.786;2023-12-04T01:40:18;98696.03;;;-5.95;100.00
16544;BME280;8384;47.996;7.786;2023-12-04T01:42:43;98703.16;;;-5.95;100.00
16544;BME280;8384;47.996;7.786;2023-12-04T01:45:09;98703.69;;;-5.92;100.00
16544;BME280;8384;47.996;7.786;2023-12-04T01:47:34;98675.72;;;-5.96;100.00
16544;BME280;8384;47.996;7.786;2023-12-04T01:50:00;98712.56;;;-5.83;100.00
16544;BME280;8384;47.996;7.786;2023-12-04T01:52:25;98707.28;;;-6.09;100.00
16544;BME280;8384;47.996;7.786;2023-12-04T01:54:51;98712.16;;;-6.23;100.00
16544;BME280;8384;47.996;7.786;2023-12-04T01:57:16;98704.66;;;-6.27;100.00
16544;BME280;8384;47.996;7.786;2023-12-04T01:59:42;98714.06;;;-6.33;100.00
16544;BME280;8384;47.996;7.786;2023-12-04T02:02:08;98704.19;;;-6.23;100.00
16544;BME280;8384;47.996;7.786;2023-12-04T02:04:35;98694.34;;;-5.96;100.00
16544;BME280;8384;47.996;7.786;2023-12-04T02:07:00;98698.81;;;-6.05;100.00
16544;BME280;8384;47.996;7.786;2023-12-04T02:09:25;98700.19;;;-6.00;100.00
16544;BME280;8384;47.996;7.786;2023-12-04T02:11:51;98700.94;;;-5.82;100.00
16544;BME280;8384;47.996;7.786;2023-12-04T02:14:18;98695.13;;;-5.77;100.00
16544;BME280;8384;47.996;7.786;2023-12-04T02:16:44;98703.47;;;-5.72;100.00
16544;BME280;8384;47.996;7.786;2023-12-04T02:19:11;98684.41;;;-5.59;100.00
16544;BME280;8384;47.996;7.786;2023-12-04T02:21:37;98705.16;;;-5.36;100.00
16544;BME280;8384;47.996;7.786;2023-12-04T02:24:02;98724.41;;;-5.51;100.00
16544;BME280;8384;47.996;7.786;2023-12-04T02:26:33;98675.19;;;-6.08;100.00
16544;BME280;8384;47.996;7.786;2023-12-04T02:29:05;98713.88;;;-5.61;100.00
16544;BME280;8384;47.996;7.786;2023-12-04T02:31:34;98706.88;;;-5.62;100.00
16544;BME280;8384;47.996;7.786;2023-12-04T02:34:00;98710.00;;;-5.66;100.00
16544;BME280;8384;47.996;7.786;2023-12-04T02:36:29;98666.16;;;-5.80;100.00
16544;BME280;8384;47.996;7.786;2023-12-04T02:38:55;98717.56;;;-5.53;100.00
16544;BME280;8384;47.996;7.786;2023-12-04T02:41:21;98692.06;;;-5.91;100.00
16544;BME280;8384;47.996;7.786;2023-12-04T02:43:46;98667.53;;;-6.29;100.00
16544;BME280;8384;47.996;7.786;2023-12-04T02:46:11;98705.63;;;-6.10;100.00
16544;BME280;8384;47.996;7.786;2023-12-04T02:48:36;98657.84;;;-6.12;100.00
16544;BME280;8384;47.996;7.786;2023-12-04T02:51:03;98705.34;;;-5.64;100.00
16544;BME280;8384;47.996;7.786;2023-12-04T02:53:28;98699.91;;;-5.54;100.00
16544;BME280;8384;47.996;7.786;2023-12-04T02:55:54;98697.03;;;-5.35;100.00
16544;BME280;8384;47.996;7.786;2023-12-04T02:58:19;98697.47;;;-5.48;100.00
16544;BME280;8384;47.996;7.786;2023-12-04T03:00:44;98686.75;;;-5.56;100.00
16544;BME280;8384;47.996;7.786;2023-12-04T03:03:09;98671.19;;;-5.34;100.00
16544;BME280;8384;47.996;7.786;2023-12-04T03:05:35;98678.25;;;-5.25;100.00
16544;BME280;8384;47.996;7.786;2023-12-04T03:08:00;98663.75;;;-5.22;100.00
16544;BME280;8384;47.996;7.786;2023-12-04T03:10:25;98593.59;;;-5.82;100.00
16544;BME280;8384;47.996;7.786;2023-12-04T03:12:50;98661.75;;;-5.20;100.00
16544;BME280;8384;47.996;7.786;2023-12-04T03:15:16;98658.13;;;-5.11;100.00
16544;BME280;8384;47.996;7.786;2023-12-04T03:17:41;98658.81;;;-5.01;100.00
16544;BME280;8384;47.996;7.786;2023-12-04T03:20:07;98617.16;;;-4.93;100.00
16544;BME280;8384;47.996;7.786;2023-12-04T03:22:36;98635.03;;;-4.53;100.00
16544;BME280;8384;47.996;7.786;2023-12-04T03:25:01;98627.03;;;-4.44;100.00
16544;BME280;8384;47.996;7.786;2023-12-04T03:27:27;98627.34;;;-4.56;100.00
16544;BME280;8384;47.996;7.786;2023-12-04T03:29:52;98635.69;;;-4.84;100.00
16544;BME280;8384;47.996;7.786;2023-12-04T03:32:17;98617.00;;;-4.84;100.00
16544;BME280;8384;47.996;7.786;2023-12-04T03:34:43;98607.53;;;-4.78;100.00
16544;BME280;8384;47.996;7.786;2023-12-04T03:37:08;98599.69;;;-4.63;100.00
16544;BME280;8384;47.996;7.786;2023-12-04T03:39:33;98577.34;;;-4.62;100.00
16544;BME280;8384;47.996;7.786;2023-12-04T03:41:58;98601.31;;;-4.29;100.00
16544;BME280;8384;47.996;7.786;2023-12-04T03:44:25;98518.88;;;-4.80;100.00
16544;BME280;8384;47.996;7.786;2023-12-04T03:46:50;98587.16;;;-4.38;100.00
16544;BME280;8384;47.996;7.786;2023-12-04T03:49:16;98591.66;;;-4.22;100.00
16544;BME280;8384;47.996;7.786;2023-12-04T03:51:42;98574.66;;;-3.72;100.00
16544;BME280;8384;47.996;7.786;2023-12-04T03:54:07;98573.25;;;-3.60;100.00
16544;BME280;8384;47.996;7.786;2023-12-04T03:56:32;98574.13;;;-3.68;100.00
16544;BME280;8384;47.996;7.786;2023-12-04T03:58:57;98564.13;;;-3.74;100.00
16544;BME280;8384;47.996;7.786;2023-12-04T04:01:23;98557.56;;;-3.63;100.00
16544;BME280;8384;47.996;7.786;2023-12-04T04:03:48;98558.97;;;-3.75;100.00
16544;BME280;8384;47.996;7.786;2023-12-04T04:06:13;98563.88;;;-3.87;100.00
16544;BME280;8384;47.996;7.786;2023-12-04T04:08:39;98553.44;;;-3.74;100.00
16544;BME280;8384;47.996;7.786;2023-12-04T04:11:04;98552.84;;;-3.84;100.00
16544;BME280;8384;47.996;7.786;2023-12-04T04:13:29;98543.16;;;-3.85;100.00
16544;BME280;8384;47.996;7.786;2023-12-04T04:15:55;98543.78;;;-3.83;100.00
16544;BME280;8384;47.996;7.786;2023-12-04T04:18:20;98543.84;;;-3.92;100.00
16544;BME280;8384;47.996;7.786;2023-12-04T04:20:45;98537.50;;;-3.90;100.00
16544;BME280;8384;47.996;7.786;2023-12-04T04:23:10;98510.25;;;-3.86;100.00
16544;BME280;8384;47.996;7.786;2023-12-04T04:25:36;98542.59;;;-3.72;100.00
16544;BME280;8384;47.996;7.786;2023-12-04T04:28:01;98535.06;;;-3.69;100.00
16544;BME280;8384;47.996;7.786;2023-12-04T04:30:26;98536.59;;;-3.74;100.00
16544;BME280;8384;47.996;7.786;2023-12-04T04:32:51;98548.22;;;-4.07;100.00
16544;BME280;8384;47.996;7.786;2023-12-04T04:35:17;98548.06;;;-4.05;100.00
16544;BME280;8384;47.996;7.786;2023-12-04T04:37:42;98544.06;;;-4.01;100.00
16544;BME280;8384;47.996;7.786;2023-12-04T04:40:08;98542.03;;;-3.99;100.00
16544;BME280;8384;47.996;7.786;2023-12-04T04:42:33;98541.22;;;-4.08;100.00
16544;BME280;8384;47.996;7.786;2023-12-04T04:44:58;98543.81;;;-4.40;100.00
16544;BME280;8384;47.996;7.786;2023-12-04T04:47:23;98545.69;;;-4.73;100.00
16544;BME280;8384;47.996;7.786;2023-12-04T04:49:49;98509.34;;;-5.16;100.00
16544;BME280;8384;47.996;7.786;2023-12-04T04:52:14;98545.88;;;-5.08;100.00
16544;BME280;8384;47.996;7.786;2023-12-04T04:54:39;98551.03;;;-5.06;100.00
16544;BME280;8384;47.996;7.786;2023-12-04T04:57:04;98561.00;;;-5.08;100.00
16544;BME280;8384;47.996;7.786;2023-12-04T04:59:30;98503.88;;;-5.31;100.00
16544;BME280;8384;47.996;7.786;2023-12-04T05:01:57;98555.84;;;-4.93;100.00
16544;BME280;8384;47.996;7.786;2023-12-04T05:04:22;98565.19;;;-4.64;100.00
16544;BME280;8384;47.996;7.786;2023-12-04T05:06:47;98557.88;;;-4.87;100.00
16544;BME280;8384;47.996;7.786;2023-12-04T05:09:13;98504.03;;;-5.07;100.00
16544;BME280;8384;47.996;7.786;2023-12-04T05:11:38;98539.53;;;-4.99;100.00
16544;BME280;8384;47.996;7.786;2023-12-04T05:14:03;98541.72;;;-4.94;100.00
16544;BME280;8384;47.996;7.786;2023-12-04T05:16:29;98540.38;;;-4.98;100.00
16544;BME280;8384;47.996;7.786;2023-12-04T05:18:54;98541.34;;;-5.07;100.00
16544;BME280;8384;47.996;7.786;2023-12-04T05:21:19;98536.69;;;-5.14;100.00
16544;BME280;8384;47.996;7.786;2023-12-04T05:23:45;98537.19;;;-4.85;100.00
16544;BME280;8384;47.996;7.786;2023-12-04T05:26:10;98532.53;;;-5.00;100.00
16544;BME280;8384;47.996;7.786;2023-12-04T05:28:35;98513.19;;;-4.93;100.00
16544;BME280;8384;47.996;7.786;2023-12-04T05:31:01;98513.19;;;-4.93;100.00
16544;BME280;8384;47.996;7.786;2023-12-04T05:33:26;98510.19;;;-4.74;100.00
16544;BME280;8384;47.996;7.786;2023-12-04T05:35:52;98506.47;;;-4.48;100.00
16544;BME280;8384;47.996;7.786;2023-12-04T05:38:18;98488.63;;;-4.39;100.00
16544;BME280;8384;47.996;7.786;2023-12-04T05:40:43;98457.84;;;-4.18;100.00
16544;BME280;8384;47.996;7.786;2023-12-04T05:43:09;98443.34;;;-4.64;100.00
16544;BME280;8384;47.996;7.786;2023-12-04T05:45:34;98486.13;;;-4.49;100.00
16544;BME280;8384;47.996;7.786;2023-12-04T05:48:00;98486.56;;;-4.29;100.00
16544;BME280;8384;47.996;7.786;2023-12-04T05:50:25;98489.59;;;-4.32;100.00
16544;BME280;8384;47.996;7.786;2023-12-04T05:52:50;98496.25;;;-4.36;100.00
16544;BME280;8384;47.996;7.786;2023-12-04T05:55:16;98496.75;;;-3.84;100.00
16544;BME280;8384;47.996;7.786;2023-12-04T05:57:41;98474.06;;;-4.28;100.00
16544;BME280;8384;47.996;7.786;2023-12-04T06:00:07;98495.97;;;-4.41;100.00
16544;BME280;8384;47.996;7.786;2023-12-04T06:02:42;98498.50;;;-4.73;100.00
16544;BME280;8384;47.996;7.786;2023-12-04T06:05:07;98462.38;;;-4.84;100.00
16544;BME280;8384;47.996;7.786;2023-12-04T06:07:33;98501.47;;;-4.43;100.00
16544;BME280;8384;47.996;7.786;2023-12-04T06:09:58;98494.78;;;-4.39;100.00
16544;BME280;8384;47.996;7.786;2023-12-04T06:12:24;98493.78;;;-4.38;100.00
16544;BME280;8384;47.996;7.786;2023-12-04T06:14:49;98426.03;;;-4.68;100.00
16544;BME280;8384;47.996;7.786;2023-12-04T06:17:14;98482.09;;;-4.37;100.00
16544;BME280;8384;47.996;7.786;2023-12-04T06:19:39;98483.34;;;-4.16;100.00
16544;BME280;8384;47.996;7.786;2023-12-04T06:22:05;98490.31;;;-3.98;100.00
16544;BME280;8384;47.996;7.786;2023-12-04T06:24:30;98484.47;;;-4.50;100.00
16544;BME280;8384;47.996;7.786;2023-12-04T06:26:56;98484.78;;;-4.45;100.00
16544;BME280;8384;47.996;7.786;2023-12-04T06:29:23;98491.78;;;-4.35;100.00
16544;BME280;8384;47.996;7.786;2023-12-04T06:31:48;98458.56;;;-4.98;100.00
16544;BME280;8384;47.996;7.786;2023-12-04T06:34:14;98512.69;;;-4.80;100.00
16544;BME280;8384;47.996;7.786;2023-12-04T06:36:39;98512.50;;;-4.71;100.00
16544;BME280;8384;47.996;7.786;2023-12-04T06:39:09;98518.13;;;-4.41;100.00
16544;BME280;8384;47.996;7.786;2023-12-04T06:41:36;98506.50;;;-4.08;100.00
16544;BME280;8384;47.996;7.786;2023-12-04T06:44:01;98504.06;;;-4.18;100.00
16544;BME280;8384;47.996;7.786;2023-12-04T06:46:28;98505.94;;;-4.35;100.00
16544;BME280;8384;47.996;7.786;2023-12-04T06:48:57;98497.59;;;-4.32;100.00
16544;BME280;8384;47.996;7.786;2023-12-04T06:51:24;98490.13;;;-3.97;100.00
16544;BME280;8384;47.996;7.786;2023-12-04T06:53:49;98471.53;;;-3.82;100.00
16544;BME280;8384;47.996;7.786;2023-12-04T06:56:15;98409.72;;;-4.33;100.00
16544;BME280;8384;47.996;7.786;2023-12-04T06:58:40;98461.22;;;-3.62;100.00
16544;BME280;8384;47.996;7.786;2023-12-04T07:01:05;98451.59;;;-3.71;100.00
16544;BME280;8384;47.996;7.786;2023-12-04T07:03:31;98442.00;;;-3.57;100.00
16544;BME280;8384;47.996;7.786;2023-12-04T07:05:56;98427.31;;;-3.38;100.00
16544;BME280;8384;47.996;7.786;2023-12-04T07:08:21;98398.19;;;-3.48;100.00
16544;BME280;8384;47.996;7.786;2023-12-04T07:10:46;98415.97;;;-3.40;100.00
16544;BME280;8384;47.996;7.786;2023-12-04T07:13:12;98400.56;;;-3.53;100.00
16544;BME280;8384;47.996;7.786;2023-12-04T07:15:38;98401.47;;;-3.22;100.00
16544;BME280;8384;47.996;7.786;2023-12-04T07:18:03;98403.44;;;-3.01;100.00
16544;BME280;8384;47.996;7.786;2023-12-04T07:20:29;98390.56;;;-3.36;100.00
16544;BME280;8384;47.996;7.786;2023-12-04T07:22:54;98390.66;;;-3.29;100.00
16544;BME280;8384;47.996;7.786;2023-12-04T07:25:20;98388.03;;;-3.14;100.00
16544;BME280;8384;47.996;7.786;2023-12-04T07:27:45;98377.25;;;-3.21;100.00
16544;BME280;8384;47.996;7.786;2023-12-04T07:30:11;98371.75;;;-3.27;100.00
16544;BME280;8384;47.996;7.786;2023-12-04T07:32:37;98373.81;;;-3.14;100.00
16544;BME280;8384;47.996;7.786;2023-12-04T07:35:03;98355.78;;;-3.51;100.00
16544;BME280;8384;47.996;7.786;2023-12-04T07:37:29;98341.53;;;-3.66;100.00
16544;BME280;8384;47.996;7.786;2023-12-04T07:39:56;98357.44;;;-3.50;100.00
16544;BME280;8384;47.996;7.786;2023-12-04T07:42:22;98362.44;;;-3.47;100.00
16544;BME280;8384;47.996;7.786;2023-12-04T07:44:47;98340.22;;;-3.47;100.00
16544;BME280;8384;47.996;7.786;2023-12-04T07:47:12;98324.91;;;-3.53;100.00
16544;BME280;8384;47.996;7.786;2023-12-04T07:49:38;98373.66;;;-3.74;100.00
16544;BME280;8384;47.996;7.786;2023-12-04T07:52:03;98352.75;;;-3.94;100.00
16544;BME280;8384;47.996;7.786;2023-12-04T07:54:29;98361.56;;;-3.85;100.00
16544;BME280;8384;47.996;7.786;2023-12-04T07:56:54;98394.03;;;-3.73;100.00
16544;BME280;8384;47.996;7.786;2023-12-04T07:59:19;98398.09;;;-3.86;100.00
16544;BME280;8384;47.996;7.786;2023-12-04T08:01:45;98395.63;;;-3.87;100.00
16544;BME280;8384;47.996;7.786;2023-12-04T08:04:10;98376.22;;;-4.04;100.00
16544;BME280;8384;47.996;7.786;2023-12-04T08:06:36;98392.13;;;-3.65;100.00
16544;BME280;8384;47.996;7.786;2023-12-04T08:09:01;98373.47;;;-3.73;100.00
16544;BME280;8384;47.996;7.786;2023-12-04T08:11:27;98396.03;;;-3.52;100.00
16544;BME280;8384;47.996;7.786;2023-12-04T08:13:53;98421.66;;;-3.89;100.00
16544;BME280;8384;47.996;7.786;2023-12-04T08:16:18;98433.88;;;-3.95;100.00
16544;BME280;8384;47.996;7.786;2023-12-04T08:18:45;98420.34;;;-3.94;100.00
16544;BME280;8384;47.996;7.786;2023-12-04T08:21:11;98411.56;;;-3.79;100.00
16544;BME280;8384;47.996;7.786;2023-12-04T08:23:37;98406.84;;;-3.69;100.00
16544;BME280;8384;47.996;7.786;2023-12-04T08:26:02;98368.44;;;-3.91;100.00
16544;BME280;8384;47.996;7.786;2023-12-04T08:28:28;98433.34;;;-3.90;100.00
16544;BME280;8384;47.996;7.786;2023-12-04T08:30:53;98428.44;;;-3.79;100.00
16544;BME280;8384;47.996;7.786;2023-12-04T08:33:18;98421.16;;;-3.62;100.00
16544;BME280;8384;47.996;7.786;2023-12-04T08:35:45;98441.50;;;-3.84;100.00
16544;BME280;8384;47.996;7.786;2023-12-04T08:38:10;98434.75;;;-3.48;100.00
16544;BME280;8384;47.996;7.786;2023-12-04T08:40:36;98433.69;;;-3.39;100.00
16544;BME280;8384;47.996;7.786;2023-12-04T08:43:01;98405.00;;;-3.07;100.00
16544;BME280;8384;47.996;7.786;2023-12-04T08:45:27;98409.97;;;-3.04;100.00
16544;BME280;8384;47.996;7.786;2023-12-04T08:47:53;98399.19;;;-3.10;100.00
16544;BME280;8384;47.996;7.786;2023-12-04T08:50:18;98361.03;;;-2.74;100.00
16544;BME280;8384;47.996;7.786;2023-12-04T08:52:43;98371.47;;;-2.64;100.00
16544;BME280;8384;47.996;7.786;2023-12-04T08:55:10;98343.88;;;-3.10;100.00
16544;BME280;8384;47.996;7.786;2023-12-04T08:57:35;98376.53;;;-2.84;100.00
16544;BME280;8384;47.996;7.786;2023-12-04T09:00:00;98387.22;;;-2.54;100.00
16544;BME280;8384;47.996;7.786;2023-12-04T09:02:26;98385.13;;;-2.74;100.00
16544;BME280;8384;47.996;7.786;2023-12-04T09:04:51;98374.50;;;-2.67;100.00
16544;BME280;8384;47.996;7.786;2023-12-04T09:07:16;98380.84;;;-2.68;100.00
16544;BME280;8384;47.996;7.786;2023-12-04T09:09:42;98386.22;;;-2.83;100.00
16544;BME280;8384;47.996;7.786;2023-12-04T09:12:07;98386.56;;;-2.72;100.00
16544;BME280;8384;47.996;7.786;2023-12-04T09:14:34;98394.81;;;-2.73;100.00
16544;BME280;8384;47.996;7.786;2023-12-04T09:16:59;98319.06;;;-3.04;100.00
16544;BME280;8384;47.996;7.786;2023-12-04T09:19:25;98398.75;;;-2.84;100.00
16544;BME280;8384;47.996;7.786;2023-12-04T09:21:50;98395.34;;;-2.93;100.00
16544;BME280;8384;47.996;7.786;2023-12-04T09:24:15;98409.63;;;-2.86;100.00
16544;BME280;8384;47.996;7.786;2023-12-04T09:26:41;98417.22;;;-2.74;100.00
16544;BME280;8384;47.996;7.786;2023-12-04T09:29:06;98401.97;;;-2.44;100.00
16544;BME280;8384;47.996;7.786;2023-12-04T09:31:31;98396.81;;;-2.30;100.00
16544;BME280;8384;47.996;7.786;2023-12-04T09:33:56;98428.28;;;-2.77;100.00
16544;BME280;8384;47.996;7.786;2023-12-04T09:36:22;98412.13;;;-2.84;100.00
16544;BME280;8384;47.996;7.786;2023-12-04T09:38:47;98374.69;;;-2.99;100.00
16544;BME280;8384;47.996;7.786;2023-12-04T09:41:13;98366.56;;;-2.61;100.00
16544;BME280;8384;47.996;7.786;2023-12-04T09:43:40;98379.25;;;-2.33;100.00
16544;BME280;8384;47.996;7.786;2023-12-04T09:46:07;98367.13;;;-2.14;100.00
16544;BME280;8384;47.996;7.786;2023-12-04T09:48:32;98377.28;;;-1.72;100.00
16544;BME280;8384;47.996;7.786;2023-12-04T09:50:59;98370.34;;;-1.38;100.00
16544;BME280;8384;47.996;7.786;2023-12-04T09:53:26;98373.19;;;-1.18;100.00
16544;BME280;8384;47.996;7.786;2023-12-04T09:55:53;98358.28;;;-0.99;100.00
16544;BME280;8384;47.996;7.786;2023-12-04T09:58:19;98358.38;;;-0.79;100.00
16544;BME280;8384;47.996;7.786;2023-12-04T10:00:45;98384.94;;;-0.55;100.00
16544;BME280;8384;47.996;7.786;2023-12-04T10:03:11;98355.41;;;-0.91;100.00
16544;BME280;8384;47.996;7.786;2023-12-04T10:05:37;98374.25;;;-1.12;100.00
16544;BME280;8384;47.996;7.786;2023-12-04T10:08:02;98369.09;;;-1.14;100.00
16544;BME280;8384;47.996;7.786;2023-12-04T10:10:27;98367.69;;;-1.10;100.00
16544;BME280;8384;47.996;7.786;2023-12-04T10:12:53;98365.22;;;-1.04;100.00
16544;BME280;8384;47.996;7.786;2023-12-04T10:15:18;98366.75;;;-0.95;100.00
16544;BME280;8384;47.996;7.786;2023-12-04T10:17:44;98350.47;;;-1.22;100.00
16544;BME280;8384;47.996;7.786;2023-12-04T10:20:15;98353.47;;;-0.75;100.00
16544;BME280;8384;47.996;7.786;2023-12-04T10:22:59;98347.34;;;-0.62;100.00
16544;BME280;8384;47.996;7.786;2023-12-04T10:25:26;98337.72;;;-0.85;100.00
16544;BME280;8384;47.996;7.786;2023-12-04T10:27:53;98327.38;;;-0.88;100.00
16544;BME280;8384;47.996;7.786;2023-12-04T10:30:26;98345.06;;;-1.29;100.00
16544;BME280;8384;47.996;7.786;2023-12-04T10:33:00;98330.25;;;-1.25;100.00
16544;BME280;8384;47.996;7.786;2023-12-04T10:35:31;98247.63;;;-1.93;100.00
16544;BME280;8384;47.996;7.786;2023-12-04T10:37:58;98314.19;;;-1.18;100.00
16544;BME280;8384;47.996;7.786;2023-12-04T10:40:28;98318.28;;;-1.22;100.00
16544;BME280;8384;47.996;7.786;2023-12-04T10:43:22;98300.75;;;-1.25;100.00
16544;BME280;8384;47.996;7.786;2023-12-04T10:45:49;98302.53;;;-1.32;100.00
16544;BME280;8384;47.996;7.786;2023-12-04T10:48:16;98292.16;;;-1.42;100.00
16544;BME280;8384;47.996;7.786;2023-12-04T10:50:44;98276.50;;;-1.38;100.00
16544;BME280;8384;47.996;7.786;2023-12-04T10:53:11;98268.13;;;-0.93;100.00
16544;BME280;8384;47.996;7.786;2023-12-04T10:55:38;98271.03;;;-1.23;100.00
16544;BME280;8384;47.996;7.786;2023-12-04T10:58:06;98238.22;;;-1.25;100.00
16544;BME280;8384;47.996;7.786;2023-12-04T11:00:37;98260.84;;;-0.99;100.00
16544;BME280;8384;47.996;7.786;2023-12-04T11:03:18;98244.47;;;-0.69;100.00
16544;BME280;8384;47.996;7.786;2023-12-04T11:05:46;98225.75;;;-0.56;100.00
16544;BME280;8384;47.996;7.786;2023-12-04T11:08:16;98219.19;;;-0.13;100.00
16544;BME280;8384;47.996;7.786;2023-12-04T11:10:59;98213.81;;;-0.13;100.00
16544;BME280;8384;47.996;7.786;2023-12-04T11:13:28;98213.75;;;-0.60;100.00
16544;BME280;8384;47.996;7.786;2023-12-04T11:16:00;98155.53;;;-0.46;100.00
16544;BME280;8384;47.996;7.786;2023-12-04T11:18:27;98189.03;;;-0.02;100.00
16544;BME280;8384;47.996;7.786;2023-12-04T11:21:08;98186.78;;;-0.18;100.00
16544;BME280;8384;47.996;7.786;2023-12-04T11:23:34;98179.75;;;-0.19;100.00
16544;BME280;8384;47.996;7.786;2023-12-04T11:26:00;98184.91;;;-0.24;100.00
16544;BME280;8384;47.996;7.786;2023-12-04T11:28:27;98179.72;;;0.01;100.00
16544;BME280;8384;47.996;7.786;2023-12-04T11:30:53;98101.59;;;-0.65;100.00
16544;BME280;8384;47.996;7.786;2023-12-04T11:33:19;98129.72;;;-0.47;100.00
16544;BME280;8384;47.996;7.786;2023-12-04T11:35:45;98161.09;;;-0.48;100.00
16544;BME280;8384;47.996;7.786;2023-12-04T11:38:13;98130.31;;;-0.72;100.00
16544;BME280;8384;47.996;7.786;2023-12-04T11:40:40;98147.91;;;-0.42;100.00
16544;BME280;8384;47.996;7.786;2023-12-04T11:43:27;98095.53;;;-1.14;100.00
16544;BME280;8384;47.996;7.786;2023-12-04T11:45:53;98135.72;;;-0.32;100.00
16544;BME280;8384;47.996;7.786;2023-12-04T11:48:25;98136.50;;;-0.65;100.00
16544;BME280;8384;47.996;7.786;2023-12-04T11:50:50;98134.69;;;-0.17;100.00
16544;BME280;8384;47.996;7.786;2023-12-04T11:53:16;98074.31;;;-0.88;100.00
16544;BME280;8384;47.996;7.786;2023-12-04T11:55:42;98135.31;;;-0.22;100.00
16544;BME280;8384;47.996;7.786;2023-12-04T11:58:11;98131.59;;;-0.21;100.00
16544;BME280;8384;47.996;7.786;2023-12-04T12:00:37;98125.00;;;-0.18;100.00
16544;BME280;8384;47.996;7.786;2023-12-04T12:03:07;98123.34;;;-0.19;100.00
16544;BME280;8384;47.996;7.786;2023-12-04T12:05:35;98073.97;;;-0.45;100.00
16544;BME280;8384;47.996;7.786;2023-12-04T12:08:05;98122.28;;;-0.25;100.00
16544;BME280;8384;47.996;7.786;2023-12-04T12:10:31;98111.16;;;-0.15;100.00
16544;BME280;8384;47.996;7.786;2023-12-04T12:12:57;98114.44;;;-0.13;100.00
16544;BME280;8384;47.996;7.786;2023-12-04T12:15:22;98110.28;;;-0.09;100.00
16544;BME280;8384;47.996;7.786;2023-12-04T12:17:49;98105.72;;;0.05;100.00
16544;BME280;8384;47.996;7.786;2023-12-04T12:20:15;98059.25;;;-0.16;100.00
16544;BME280;8384;47.996;7.786;2023-12-04T12:22:40;98036.78;;;-0.62;100.00
16544;BME280;8384;47.996;7.786;2023-12-04T12:25:09;98099.09;;;0.14;100.00
16544;BME280;8384;47.996;7.786;2023-12-04T12:27:35;98091.88;;;0.08;100.00
16544;BME280;8384;47.996;7.786;2023-12-04T12:30:01;98089.00;;;0.03;100.00
16544;BME280;8384;47.996;7.786;2023-12-04T12:32:28;98026.56;;;0.08;100.00
16544;BME280;8384;47.996;7.786;2023-12-04T12:34:53;98077.16;;;0.31;100.00
16544;BME280;8384;47.996;7.786;2023-12-04T12:37:20;98073.50;;;0.12;100.00
16544;BME280;8384;47.996;7.786;2023-12-04T12:39:46;98065.41;;;0.19;100.00
16544;BME280;8384;47.996;7.786;2023-12-04T12:42:11;98068.94;;;0.06;100.00
16544;BME280;8384;47.996;7.786;2023-12-04T12:44:40;98066.63;;;0.16;100.00
16544;BME280;8384;47.996;7.786;2023-12-04T12:47:06;98048.44;;;0.18;100.00
16544;BME280;8384;47.996;7.786;2023-12-04T12:49:35;98033.66;;;-0.32;100.00
16544;BME280;8384;47.996;7.786;2023-12-04T12:52:02;98061.91;;;0.11;100.00
16544;BME280;8384;47.996;7.786;2023-12-04T12:54:30;98064.63;;;-0.16;100.00